Time;durP1;ratioP1;P1;durP2;ratioP2;P2;SDS_P1;SDS_P2;PMS_P1;PMS_P2;Temp;Humidity;BMP_temperature;BMP_pressure;BME280_temperature;BME280_humidity;BME280_pressure;Samples;Min_cycle;Max_cycle;Signal;HPM_P1;HPM_P2
2023/12/13 00:00:44;;;;;;;6.85;3.00;;;;;;;9.05;100.00;99526.63;4806394;29;20160;-66
2023/12/13 00:03:32;;;;;;;8.15;2.65;;;;;;;9.04;100.00;99523.06;4805437;29;20050;-66
2023/12/13 00:06:20;;;;;;;8.25;2.50;;;;;;;9.04;100.00;99531.22;4794043;29;20077;-66
2023/12/13 00:09:08;;;;;;;7.32;2.25;;;;;;;9.03;100.00;99523.38;4802362;29;20143;-66
2023/12/13 00:11:56;;;;;;;7.07;2.42;;;;;;;9.02;100.00;99521.75;4805821;29;20043;-66
2023/12/13 00:14:44;;;;;;;4.50;2.15;;;;;;;9.00;100.00;99524.78;4780935;29;20183;-67
2023/12/13 00:17:32;;;;;;;6.32;2.25;;;;;;;8.99;100.00;99516.91;4806630;29;20130;-66
2023/12/13 00:20:21;;;;;;;7.20;2.40;;;;;;;8.97;100.00;99511.75;4792331;29;20706;-66
2023/12/13 00:23:09;;;;;;;6.43;2.40;;;;;;;8.98;100.00;99515.31;4791350;29;20135;-66
2023/12/13 00:25:57;;;;;;;5.82;2.42;;;;;;;8.96;100.00;99513.66;4804994;29;20058;-68
2023/12/13 00:28:45;;;;;;;5.05;2.17;;;;;;;8.95;100.00;99517.50;4790702;29;20053;-66
2023/12/13 00:31:33;;;;;;;9.05;2.30;;;;;;;8.95;100.00;99517.50;4794192;29;20053;-65
2023/12/13 00:34:21;;;;;;;3.72;1.95;;;;;;;8.96;100.00;99516.38;4788270;29;20185;-68
2023/12/13 00:37:10;;;;;;;4.55;2.38;;;;;;;8.96;100.00;99512.88;4786603;30;20055;-68
2023/12/13 00:39:58;;;;;;;6.80;2.30;;;;;;;8.95;100.00;99517.50;4773581;30;20055;-67
2023/12/13 00:42:46;;;;;;;5.70;2.20;;;;;;;8.93;100.00;99522.41;4791692;29;20137;-67
2023/12/13 00:45:34;;;;;;;4.95;2.28;;;;;;;8.92;100.00;99523.50;4805118;29;20147;-67
2023/12/13 00:48:22;;;;;;;6.05;2.03;;;;;;;8.92;100.00;99515.38;4792095;29;20523;-67
2023/12/13 00:51:21;;;;;;;4.53;2.15;;;;;;;8.90;100.00;99520.28;4791535;29;20138;-66
2023/12/13 00:54:09;;;;;;;4.95;2.00;;;;;;;8.90;100.00;99520.28;4803584;29;20051;-66
2023/12/13 00:56:57;;;;;;;5.07;2.45;;;;;;;8.88;100.00;99514.31;4790608;29;20492;-68
2023/12/13 00:59:45;;;;;;;7.20;2.22;;;;;;;8.87;100.00;99518.09;4805666;29;20428;-67
2023/12/13 01:02:33;;;;;;;5.75;2.15;;;;;;;8.86;100.00;99513.78;4805256;29;20538;-67
2023/12/13 01:05:21;;;;;;;6.13;2.10;;;;;;;8.86;100.00;99513.78;4792109;29;20123;-68
2023/12/13 01:08:09;;;;;;;6.85;2.70;;;;;;;8.86;100.00;99511.06;4794088;29;20053;-66
2023/12/13 01:10:57;;;;;;;5.55;2.22;;;;;;;8.86;100.00;99511.06;4794132;29;20424;-67
2023/12/13 01:13:46;;;;;;;4.38;1.98;;;;;;;8.87;100.00;99514.59;4808807;29;20058;-68
2023/12/13 01:16:34;;;;;;;6.95;2.30;;;;;;;8.88;100.00;99517.03;4794667;29;20415;-67
2023/12/13 01:19:24;;;;;;;5.60;2.13;;;;;;;8.89;100.00;99515.91;4808515;29;20130;-68
2023/12/13 01:22:12;;;;;;;4.30;1.88;;;;;;;8.87;100.00;99507.25;4806973;29;20512;-68
2023/12/13 01:25:00;;;;;;;6.07;1.90;;;;;;;8.87;100.00;99507.25;4807849;29;20051;-67
2023/12/13 01:27:48;;;;;;;4.13;1.83;;;;;;;8.90;100.00;99514.03;4806822;29;20060;-67
2023/12/13 01:30:36;;;;;;;5.10;1.88;;;;;;;8.89;100.00;99510.50;4809979;29;20134;-67
2023/12/13 01:33:24;;;;;;;4.43;2.05;;;;;;;8.88;100.00;99506.16;4795859;29;20047;-67
2023/12/13 01:36:13;;;;;;;7.80;2.30;;;;;;;8.88;100.00;99517.03;4793044;29;20078;-68
2023/12/13 01:39:01;;;;;;;6.13;1.80;;;;;;;8.87;100.00;99515.41;4808169;29;20188;-68
2023/12/13 01:41:49;;;;;;;4.93;2.03;;;;;;;8.90;100.00;99514.03;4807624;29;20484;-67
2023/12/13 01:44:38;;;;;;;5.43;2.20;;;;;;;8.90;100.00;99514.03;4807525;29;20200;-67
2023/12/13 01:47:26;;;;;;;5.22;1.85;;;;;;;8.89;100.00;99523.25;4794729;29;20208;-67
2023/12/13 01:50:14;;;;;;;6.50;2.38;;;;;;;8.89;100.00;99515.91;4794215;29;20420;-67
2023/12/13 01:53:02;;;;;;;6.25;1.90;;;;;;;8.90;100.00;99525.69;4794426;29;20150;-67
2023/12/13 01:55:50;;;;;;;6.60;2.42;;;;;;;8.89;100.00;99524.06;4807004;29;20058;-68
2023/12/13 01:58:38;;;;;;;4.00;2.10;;;;;;;8.89;100.00;99532.22;4806994;29;20528;-67
2023/12/13 02:01:27;;;;;;;6.80;2.40;;;;;;;8.88;100.00;99527.91;4794382;29;20084;-68
2023/12/13 02:04:16;;;;;;;7.35;2.28;;;;;;;8.89;100.00;99531.41;4776509;30;20410;-67
2023/12/13 02:07:04;;;;;;;6.72;2.08;;;;;;;8.90;100.00;99527.63;4776352;30;20043;-67
2023/12/13 02:09:52;;;;;;;6.22;2.20;;;;;;;8.89;100.00;99520.56;4779226;30;20165;-67
2023/12/13 02:12:40;;;;;;;3.75;1.83;;;;;;;8.89;100.00;99526.78;4806142;29;20051;-67
2023/12/13 02:15:28;;;;;;;4.72;2.10;;;;;;;8.89;100.00;99521.34;4805623;29;20074;-68
2023/12/13 02:18:16;;;;;;;4.75;1.85;;;;;;;8.89;100.00;99524.06;4807048;29;20065;-68
2023/12/13 02:21:06;;;;;;;5.93;2.25;;;;;;;8.88;100.00;99517.03;4805476;29;20066;-67
2023/12/13 02:23:55;;;;;;;7.00;2.75;;;;;;;8.87;100.00;99509.97;4808159;29;20520;-67
2023/12/13 02:26:45;;;;;;;7.32;2.72;;;;;;;8.88;100.00;99511.59;4792693;29;20054;-67
2023/12/13 02:29:33;;;;;;;5.10;1.90;;;;;;;8.89;100.00;99509.69;4805067;29;20196;-67
2023/12/13 02:32:21;;;;;;;4.65;2.30;;;;;;;8.88;100.00;99516.22;4805293;29;20062;-68
2023/12/13 02:35:09;;;;;;;5.93;2.58;;;;;;;8.87;100.00;99514.59;4805933;29;20059;-67
2023/12/13 02:37:57;;;;;;;8.85;2.80;;;;;;;8.86;100.00;99511.06;4806408;29;20192;-67
2023/12/13 02:40:45;;;;;;;6.20;2.47;;;;;;;8.87;100.00;99509.97;4805177;29;20066;-67
2023/12/13 02:43:33;;;;;;;6.13;2.42;;;;;;;8.88;100.00;99508.88;4805948;29;20059;-67
2023/12/13 02:46:21;;;;;;;7.30;2.38;;;;;;;8.89;100.00;99512.41;4792643;29;20116;-67
2023/12/13 02:49:09;;;;;;;6.35;2.47;;;;;;;8.89;100.00;99504.25;4805394;29;20531;-67
2023/12/13 02:51:57;;;;;;;6.50;2.55;;;;;;;8.86;100.00;99505.63;4805147;29;20065;-67
2023/12/13 02:54:45;;;;;;;8.05;2.75;;;;;;;8.87;100.00;99498.28;4805088;29;20051;-67
2023/12/13 02:57:33;;;;;;;8.80;2.83;;;;;;;8.85;100.00;99504.03;4804894;29;20065;-68
2023/12/13 03:00:21;;;;;;;6.00;2.50;;;;;;;8.85;100.00;99495.88;4807313;29;20421;-67
2023/12/13 03:03:09;;;;;;;8.55;2.92;;;;;;;8.85;100.00;99495.88;4806220;29;20054;-68
2023/12/13 03:05:58;;;;;;;6.28;2.67;;;;;;;8.85;100.00;99501.31;4805367;29;20047;-68
2023/12/13 03:08:45;;;;;;;12.20;2.75;;;;;;;8.84;100.00;99499.69;4805392;29;20054;-67
2023/12/13 03:11:33;;;;;;;6.18;2.30;;;;;;;8.84;100.00;99499.69;4808734;29;20135;-68
2023/12/13 03:14:21;;;;;;;5.72;2.63;;;;;;;8.85;100.00;99492.34;4807904;29;20058;-68
2023/12/13 03:17:09;;;;;;;6.40;2.55;;;;;;;8.85;100.00;99490.44;4806450;29;20054;-68
2023/12/13 03:19:57;;;;;;;7.82;2.40;;;;;;;8.86;100.00;99492.06;4805153;29;20432;-68
2023/12/13 03:22:45;;;;;;;8.73;3.20;;;;;;;8.86;100.00;99492.06;4806124;29;20061;-68
2023/12/13 03:25:33;;;;;;;5.65;2.47;;;;;;;8.86;100.00;99492.06;4788576;29;20425;-67
2023/12/13 03:28:22;;;;;;;7.45;2.75;;;;;;;8.86;100.00;99486.63;4785535;29;20059;-67
2023/12/13 03:31:10;;;;;;;8.00;2.83;;;;;;;8.86;100.00;99474.97;4787998;30;20051;-67
2023/12/13 03:34:00;;;;;;;9.45;2.80;;;;;;;8.86;100.00;99481.19;4800997;29;20065;-67
2023/12/13 03:36:48;;;;;;;9.55;2.90;;;;;;;8.87;100.00;99482.78;4806089;29;20051;-67
2023/12/13 03:39:36;;;;;;;7.03;2.75;;;;;;;8.86;100.00;99475.75;4805664;29;20051;-67
2023/12/13 03:42:24;;;;;;;9.13;2.95;;;;;;;8.85;100.00;99484.19;4792366;29;20062;-67
2023/12/13 03:45:12;;;;;;;11.40;3.45;;;;;;;8.85;100.00;99476.88;4788520;29;20203;-65
2023/12/13 03:48:00;;;;;;;9.30;2.88;;;;;;;8.85;100.00;99468.72;4787211;30;20073;-65
2023/12/13 03:50:49;;;;;;;7.78;2.78;;;;;;;8.83;100.00;99470.13;4788916;29;20089;-66
2023/12/13 03:53:39;;;;;;;11.35;3.42;;;;;;;8.81;100.00;99475.81;4809742;29;20051;-63
2023/12/13 03:56:29;;;;;;;7.60;2.97;;;;;;;8.81;100.00;99467.69;4812869;29;20082;-62
2023/12/13 03:59:17;;;;;;;9.40;3.50;;;;;;;8.82;100.00;99466.56;4810287;29;20058;-64
2023/12/13 04:02:05;;;;;;;9.48;2.97;;;;;;;8.84;100.00;99466.28;4809429;29;20050;-65
2023/12/13 04:04:56;;;;;;;11.20;3.15;;;;;;;8.86;100.00;99464.09;4801121;29;20115;-65
2023/12/13 04:07:44;;;;;;;11.07;3.10;;;;;;;8.86;100.00;99455.94;4810748;29;20058;-60
2023/12/13 04:10:32;;;;;;;11.20;3.22;;;;;;;8.86;100.00;99459.47;4813989;29;20063;-66
2023/12/13 04:13:20;;;;;;;11.07;3.05;;;;;;;8.87;100.00;99454.84;4802087;29;20187;-67
2023/12/13 04:16:09;;;;;;;11.60;3.30;;;;;;;8.86;100.00;99462.19;4809029;29;20057;-67
2023/12/13 04:18:57;;;;;;;10.32;3.50;;;;;;;8.87;100.00;99461.06;4815884;29;20519;-67
2023/12/13 04:21:45;;;;;;;14.82;3.65;;;;;;;8.86;100.00;99464.91;4805553;29;20109;-67
2023/12/13 04:24:33;;;;;;;9.55;2.92;;;;;;;8.85;100.00;99459.75;4791911;29;20070;-65
2023/12/13 04:27:21;;;;;;;15.50;4.15;;;;;;;8.85;100.00;99459.75;4804212;29;20073;-65
2023/12/13 04:30:11;;;;;;;18.10;3.85;;;;;;;8.81;100.00;99467.69;4804445;29;20137;-67
2023/12/13 04:32:59;;;;;;;12.40;3.40;;;;;;;8.76;100.00;99465.03;4803831;29;20054;-67
2023/12/13 04:35:47;;;;;;;16.17;4.15;;;;;;;8.72;100.00;99469.41;4791319;29;20084;-67
2023/12/13 04:38:35;;;;;;;14.77;3.80;;;;;;;8.71;100.00;99465.09;4790356;29;20193;-67
2023/12/13 04:41:23;;;;;;;7.15;3.13;;;;;;;8.75;100.00;99463.38;4802699;29;20166;-67
2023/12/13 04:44:12;;;;;;;7.50;2.53;;;;;;;8.79;100.00;99461.72;4803289;29;20529;-67
2023/12/13 04:47:00;;;;;;;12.88;3.03;;;;;;;8.81;100.00;99462.25;4779787;29;20043;-66
2023/12/13 04:49:51;;;;;;;14.55;4.00;;;;;;;8.79;100.00;99460.91;4803868;29;20126;-68
2023/12/13 04:52:40;;;;;;;12.27;3.90;;;;;;;8.76;100.00;99456.88;4801724;29;20065;-66
2023/12/13 04:55:28;;;;;;;16.30;4.07;;;;;;;8.73;100.00;99454.72;4822296;29;20054;-67
2023/12/13 04:58:16;;;;;;;13.80;4.05;;;;;;;8.70;100.00;99453.38;4808880;29;20054;-67
2023/12/13 05:01:04;;;;;;;16.25;4.20;;;;;;;8.71;100.00;99457.75;4808598;29;20389;-67
2023/12/13 05:03:52;;;;;;;11.15;3.30;;;;;;;8.74;100.00;99451.72;4805352;29;20063;-65
2023/12/13 05:06:40;;;;;;;12.10;3.42;;;;;;;8.78;100.00;99457.41;4790602;29;20432;-67
2023/12/13 05:09:28;;;;;;;12.70;3.78;;;;;;;8.81;100.00;99453.28;4753440;29;1097144;-67
2023/12/13 05:12:16;;;;;;;8.77;3.13;;;;;;;8.82;100.00;99450.28;4805295;29;20141;-67
2023/12/13 05:15:05;;;;;;;14.82;3.80;;;;;;;8.84;100.00;99450.78;4786515;30;20052;-67
2023/12/13 05:17:53;;;;;;;9.93;3.10;;;;;;;8.84;100.00;99450.00;4786847;30;20051;-67
2023/12/13 05:20:41;;;;;;;13.07;3.75;;;;;;;8.84;100.00;99445.38;4773053;30;20051;-66
2023/12/13 05:23:29;;;;;;;11.68;4.00;;;;;;;8.83;100.00;99443.75;4793190;29;20146;-66
2023/12/13 05:26:18;;;;;;;13.70;4.00;;;;;;;8.84;100.00;99448.06;4812606;29;20512;-65
2023/12/13 05:29:06;;;;;;;11.55;3.28;;;;;;;8.85;100.00;99452.44;4778004;29;20398;-67
2023/12/13 05:31:54;;;;;;;10.57;3.30;;;;;;;8.85;100.00;99447.00;4780117;29;20054;-65
2023/12/13 05:34:44;;;;;;;11.85;3.42;;;;;;;8.85;100.00;99449.72;4793462;29;20078;-66
2023/12/13 05:37:32;;;;;;;10.07;3.30;;;;;;;8.86;100.00;99445.88;4787021;29;20054;-67
2023/12/13 05:40:22;;;;;;;13.48;3.75;;;;;;;8.87;100.00;99452.13;4787280;29;20060;-67
2023/12/13 05:43:10;;;;;;;13.05;3.85;;;;;;;8.86;100.00;99448.59;4787106;30;20047;-67
2023/12/13 05:45:59;;;;;;;15.02;3.50;;;;;;;8.87;100.00;99444.78;4803844;29;20416;-67
2023/12/13 05:48:47;;;;;;;15.55;3.63;;;;;;;8.86;100.00;99443.16;4804241;29;20139;-67
2023/12/13 05:51:35;;;;;;;12.05;3.72;;;;;;;8.87;100.00;99447.50;4793006;29;20066;-67
2023/12/13 05:54:23;;;;;;;14.75;3.50;;;;;;;8.87;100.00;99443.97;4807289;29;20496;-67
2023/12/13 05:57:12;;;;;;;10.80;3.30;;;;;;;8.86;100.00;99445.88;4776953;30;20523;-67
2023/12/13 06:00:00;;;;;;;14.07;3.70;;;;;;;8.86;100.00;99445.88;4789918;30;20053;-67
2023/12/13 06:02:49;;;;;;;14.00;3.50;;;;;;;8.87;100.00;99450.22;4788994;29;20051;-67
2023/12/13 06:05:43;;;;;;;12.90;4.05;;;;;;;8.90;100.00;99444.22;4779410;29;20398;-67
2023/12/13 06:08:31;;;;;;;11.68;3.70;;;;;;;8.90;100.00;99449.66;4789137;30;20060;-66
2023/12/13 06:11:19;;;;;;;11.73;3.58;;;;;;;8.89;100.00;99453.44;4789082;30;20071;-67
2023/12/13 06:14:07;;;;;;;15.18;4.20;;;;;;;8.89;100.00;99453.44;4804786;29;20066;-67
2023/12/13 06:16:56;;;;;;;18.15;4.13;;;;;;;8.89;100.00;99458.88;4806533;29;20062;-66
2023/12/13 06:19:44;;;;;;;13.82;3.85;;;;;;;8.89;100.00;99456.16;4807467;29;20423;-67
2023/12/13 06:22:32;;;;;;;14.95;3.85;;;;;;;8.89;100.00;99456.16;4807481;29;20051;-68
2023/12/13 06:25:20;;;;;;;13.07;4.28;;;;;;;8.89;100.00;99464.31;4807686;29;20051;-66
2023/12/13 06:28:08;;;;;;;13.80;3.80;;;;;;;8.89;100.00;99469.75;4808047;29;20420;-66
2023/12/13 06:30:56;;;;;;;12.27;3.35;;;;;;;8.89;100.00;99464.31;4793256;29;20054;-65
2023/12/13 06:33:44;;;;;;;12.32;4.00;;;;;;;8.88;100.00;99467.34;4809262;29;20055;-66
2023/12/13 06:36:37;;;;;;;12.20;3.50;;;;;;;8.89;100.00;99469.75;4809846;29;20054;-67
2023/12/13 06:39:25;;;;;;;13.63;4.00;;;;;;;8.89;100.00;99469.75;4807036;29;20050;-67
2023/12/13 06:42:13;;;;;;;11.00;3.50;;;;;;;8.87;100.00;99474.66;4806108;29;20110;-67
2023/12/13 06:45:01;;;;;;;13.52;4.32;;;;;;;8.89;100.00;99474.38;4114647;30;10000988;-67
2023/12/13 06:47:49;;;;;;;14.57;4.50;;;;;;;8.90;100.00;99468.66;4794041;29;20220;-66
2023/12/13 06:50:37;;;;;;;15.57;4.35;;;;;;;8.89;100.00;99469.75;4803802;29;20548;-66
2023/12/13 06:53:25;;;;;;;12.55;3.40;;;;;;;8.90;100.00;99465.94;4802854;29;20469;-65
2023/12/13 06:56:13;;;;;;;16.40;4.30;;;;;;;8.90;100.00;99465.94;4802508;29;20157;-65
2023/12/13 06:59:01;;;;;;;14.43;4.00;;;;;;;8.91;100.00;99472.19;4788909;29;20065;-66
2023/12/13 07:01:49;;;;;;;14.07;4.00;;;;;;;8.92;100.00;99473.78;4799721;29;20055;-67
2023/12/13 07:04:37;;;;;;;16.10;4.68;;;;;;;8.91;100.00;99470.25;4792475;29;20067;-66
2023/12/13 07:07:26;;;;;;;12.77;4.20;;;;;;;8.89;100.00;99472.47;4771284;30;20051;-65
2023/12/13 07:10:14;;;;;;;13.80;3.70;;;;;;;8.91;100.00;99472.19;4803802;29;20063;-67
2023/12/13 07:13:03;;;;;;;17.83;4.45;;;;;;;8.90;100.00;99470.56;4802314;29;20160;-66
2023/12/13 07:15:51;;;;;;;16.48;3.78;;;;;;;8.90;100.00;99473.28;4801526;29;20055;-65
2023/12/13 07:18:38;;;;;;;14.57;4.55;;;;;;;8.90;100.00;99476.81;4787295;29;20133;-67
2023/12/13 07:21:26;;;;;;;11.65;3.78;;;;;;;8.90;100.00;99476.81;4798781;29;20112;-66
2023/12/13 07:24:14;;;;;;;14.15;4.18;;;;;;;8.94;100.00;99483.25;4796056;29;20084;-66
2023/12/13 07:27:02;;;;;;;15.00;3.95;;;;;;;8.93;100.00;99481.66;4805105;29;20171;-66
2023/12/13 07:29:50;;;;;;;12.77;4.53;;;;;;;8.93;100.00;99481.66;4805076;29;20144;-66
2023/12/13 07:32:41;;;;;;;23.33;4.50;;;;;;;8.93;100.00;99483.56;4817843;29;20184;-66
2023/12/13 07:35:29;;;;;;;12.80;4.13;;;;;;;8.92;100.00;99488.19;4806040;29;20424;-67
2023/12/13 07:38:17;;;;;;;12.32;3.80;;;;;;;8.92;100.00;99488.19;4806398;29;20527;-67
2023/12/13 07:41:05;;;;;;;16.10;4.70;;;;;;;8.92;100.00;99487.38;4806569;29;20047;-67
2023/12/13 07:43:54;;;;;;;12.80;4.30;;;;;;;8.94;100.00;99496.03;4806469;29;20047;-68
2023/12/13 07:46:42;;;;;;;12.52;3.70;;;;;;;8.93;100.00;99497.94;4804830;29;20054;-67
2023/12/13 07:49:30;;;;;;;14.88;4.35;;;;;;;8.94;100.00;99485.97;4818760;29;20055;-67
2023/12/13 07:52:18;;;;;;;15.07;4.53;;;;;;;8.95;100.00;99486.81;4803264;29;20050;-65
2023/12/13 07:55:06;;;;;;;14.18;4.30;;;;;;;8.94;100.00;99491.41;4801297;29;20051;-67
2023/12/13 07:57:54;;;;;;;15.93;3.92;;;;;;;8.93;100.00;99497.94;4806757;29;20054;-66
2023/12/13 08:00:42;;;;;;;15.90;4.72;;;;;;;8.93;100.00;99494.44;4805563;29;20050;-66
2023/12/13 08:03:30;;;;;;;13.23;4.38;;;;;;;8.91;100.00;99494.72;4802574;29;20428;-67
2023/12/13 08:06:19;;;;;;;12.57;3.78;;;;;;;8.93;100.00;99489.00;4806861;29;20432;-65
2023/12/13 08:09:10;;;;;;;13.07;3.97;;;;;;;8.92;100.00;99487.38;4790635;29;20062;-65
2023/12/13 08:11:58;;;;;;;14.75;4.43;;;;;;;8.92;100.00;99492.78;4780257;30;20059;-64
2023/12/13 08:14:46;;;;;;;18.50;4.95;;;;;;;8.91;100.00;99502.88;4788600;30;20138;-66
2023/12/13 08:17:34;;;;;;;13.10;4.10;;;;;;;8.90;100.00;99501.25;4789677;30;20134;-65
2023/12/13 08:20:28;;;;;;;11.82;4.10;;;;;;;8.89;100.00;99501.53;4796295;30;20055;-63
2023/12/13 08:23:16;;;;;;;12.63;3.80;;;;;;;8.89;100.00;99502.34;4801599;30;20051;-65
2023/12/13 08:26:04;;;;;;;10.63;3.78;;;;;;;8.91;100.00;99502.88;4800259;30;20122;-64
2023/12/13 08:28:52;;;;;;;11.18;3.75;;;;;;;8.91;100.00;99502.06;4788278;30;20534;-66
2023/12/13 08:31:52;;;;;;;11.32;3.80;;;;;;;8.91;100.00;99511.00;4784882;30;20085;-65
2023/12/13 08:34:41;;;;;;;13.25;3.92;;;;;;;8.91;100.00;99511.00;4787535;30;20063;-65
2023/12/13 08:37:29;;;;;;;12.13;4.00;;;;;;;8.91;100.00;99513.72;4738468;30;20051;-66
2023/12/13 08:40:18;;;;;;;12.55;4.25;;;;;;;8.90;100.00;99514.84;4787366;30;20052;-66
2023/12/13 08:43:06;;;;;;;12.18;4.40;;;;;;;8.91;100.00;99521.88;4787160;30;20054;-65
2023/12/13 08:45:54;;;;;;;12.65;3.95;;;;;;;8.93;100.00;99524.31;4787243;30;20074;-64
2023/12/13 08:48:44;;;;;;;8.95;4.00;;;;;;;8.93;100.00;99525.13;4774097;30;20058;-65
2023/12/13 08:51:33;;;;;;;16.35;5.13;;;;;;;8.94;100.00;99525.91;4783904;29;20063;-66
2023/12/13 08:54:21;;;;;;;14.35;4.55;;;;;;;8.94;100.00;99525.91;4786798;29;20051;-65
2023/12/13 08:57:09;;;;;;;12.48;4.35;;;;;;;8.94;100.00;99524.00;4785247;30;20196;-66
2023/12/13 08:59:56;;;;;;;14.75;4.38;;;;;;;8.94;100.00;99518.56;4785273;30;20051;-65
2023/12/13 09:02:56;;;;;;;11.77;4.30;;;;;;;8.94;100.00;99526.72;4774138;29;20063;-66
2023/12/13 09:05:44;;;;;;;14.43;4.32;;;;;;;8.94;100.00;99524.00;4770621;29;20134;-66
2023/12/13 09:08:33;;;;;;;13.43;4.25;;;;;;;8.96;100.00;99534.59;4765155;30;20435;-65
2023/12/13 09:11:21;;;;;;;11.32;3.55;;;;;;;8.99;100.00;99527.78;4800484;29;20424;-66
2023/12/13 09:14:09;;;;;;;14.18;4.57;;;;;;;8.98;100.00;99537.03;4806321;29;20043;-67
2023/12/13 09:16:58;;;;;;;13.60;4.70;;;;;;;8.95;100.00;99541.94;4795577;29;20051;-66
2023/12/13 09:19:46;;;;;;;12.43;4.55;;;;;;;8.94;100.00;99544.94;4793768;29;20062;-68
2023/12/13 09:22:35;;;;;;;11.50;4.57;;;;;;;8.91;100.00;99542.81;4806344;29;20143;-67
2023/12/13 09:25:23;;;;;;;10.50;4.22;;;;;;;8.91;100.00;99543.59;4792255;29;20416;-67
2023/12/13 09:28:11;;;;;;;11.60;4.07;;;;;;;8.94;100.00;99539.50;4807191;29;20055;-67
2023/12/13 09:30:59;;;;;;;13.20;4.80;;;;;;;8.96;100.00;99540.84;4811801;29;20078;-66
2023/12/13 09:33:47;;;;;;;10.90;4.22;;;;;;;9.00;100.00;99545.72;4811834;29;20054;-66
2023/12/13 09:36:35;;;;;;;11.98;4.47;;;;;;;9.01;100.00;99545.41;4798521;29;20496;-65
2023/12/13 09:39:23;;;;;;;11.18;4.65;;;;;;;9.04;100.00;99546.72;4794976;29;20582;-65
2023/12/13 09:42:13;;;;;;;9.27;3.90;;;;;;;9.05;100.00;99548.38;4808320;29;20058;-65
2023/12/13 09:45:03;;;;;;;10.13;3.85;;;;;;;9.06;100.00;99550.78;4794521;29;20135;-65
2023/12/13 09:47:53;;;;;;;10.02;4.30;;;;;;;9.07;100.00;99551.59;4805702;29;20101;-66
2023/12/13 09:50:43;;;;;;;16.95;4.75;;;;;;;9.08;100.00;99564.06;4793526;29;20084;-66
2023/12/13 09:53:32;;;;;;;11.98;4.90;;;;;;;9.11;100.00;99563.50;4792800;29;20054;-66
2023/12/13 09:56:21;;;;;;;10.63;4.22;;;;;;;9.16;100.00;99561.53;4792572;29;20043;-66
2023/12/13 09:59:11;;;;;;;13.95;4.45;;;;;;;9.18;100.00;99569.38;4807959;29;20061;-66
2023/12/13 10:01:59;;;;;;;11.57;4.28;;;;;;;9.14;100.00;99568.38;4808333;29;20267;-66
2023/12/13 10:04:48;;;;;;;13.60;5.00;;;;;;;9.16;100.00;99577.03;4779737;29;20500;-65
2023/12/13 10:07:38;;;;;;;9.68;3.85;;;;;;;9.17;100.00;99574.03;4794535;29;20081;-66
2023/12/13 10:10:31;;;;;;;10.15;4.20;;;;;;;9.21;100.00;99576.97;4797341;29;20078;-67
2023/12/13 10:13:19;;;;;;;11.25;3.85;;;;;;;9.22;100.00;99584.03;4793927;29;20058;-66
2023/12/13 10:16:11;;;;;;;9.27;3.83;;;;;;;9.25;100.00;99580.72;4805839;29;20051;-66
2023/12/13 10:18:59;;;;;;;9.85;3.78;;;;;;;9.28;100.00;99582.06;4805625;29;20047;-66
2023/12/13 10:21:48;;;;;;;10.68;4.60;;;;;;;9.29;100.00;99586.41;4805758;29;20066;-66
2023/12/13 10:24:36;;;;;;;11.77;4.35;;;;;;;9.29;100.00;99587.22;4806237;29;20174;-67
2023/12/13 10:27:24;;;;;;;12.48;4.63;;;;;;;9.32;100.00;99589.34;4799082;29;20454;-67
2023/12/13 10:30:13;;;;;;;10.68;4.25;;;;;;;9.34;100.00;99583.63;4794622;29;20103;-67
2023/12/13 10:33:01;;;;;;;11.38;4.25;;;;;;;9.36;100.00;99582.22;4806186;29;20065;-68
2023/12/13 10:35:50;;;;;;;15.85;5.78;;;;;;;9.33;100.00;99582.81;4806761;29;20065;-66
2023/12/13 10:38:39;;;;;;;16.35;5.45;;;;;;;9.30;100.00;99577.94;4805825;29;20523;-66
2023/12/13 10:41:28;;;;;;;15.00;5.15;;;;;;;9.29;100.00;99581.78;4806557;29;20497;-66
2023/12/13 10:44:16;;;;;;;14.32;5.15;;;;;;;9.29;100.00;99576.34;4790255;29;20154;-67
2023/12/13 10:47:08;;;;;;;15.45;4.95;;;;;;;9.33;100.00;99582.81;4795480;29;20051;-65
2023/12/13 10:49:56;;;;;;;11.55;4.63;;;;;;;9.35;100.00;99580.59;4818086;29;20051;-66
2023/12/13 10:52:45;;;;;;;12.48;4.57;;;;;;;9.38;100.00;99580.03;4804408;29;20055;-66
2023/12/13 10:55:35;;;;;;;13.43;4.72;;;;;;;9.37;100.00;99583.84;4805669;29;20061;-65
2023/12/13 10:58:24;;;;;;;10.30;4.53;;;;;;;9.37;100.00;99575.69;4807227;29;20112;-65
2023/12/13 11:01:13;;;;;;;11.40;5.00;;;;;;;9.37;100.00;99588.47;4806127;29;20054;-66
2023/12/13 11:04:08;;;;;;;12.32;5.28;;;;;;;9.37;100.00;99583.84;4794746;29;20055;-67
2023/12/13 11:07:03;;;;;;;13.57;4.80;;;;;;;9.37;100.00;99583.84;4798071;29;20054;-66
2023/12/13 11:10:00;;;;;;;7.65;3.60;;;;;;;9.38;100.00;99590.91;4805568;29;20062;-65
2023/12/13 11:12:51;;;;;;;12.32;4.72;;;;;;;9.43;100.00;99595.47;4808595;29;20058;-67
2023/12/13 11:15:43;;;;;;;10.85;4.55;;;;;;;9.44;100.00;99594.38;4781444;29;20529;-65
2023/12/13 11:18:33;;;;;;;9.38;3.90;;;;;;;9.46;100.00;99596.81;4792412;29;20141;-65
2023/12/13 11:21:27;;;;;;;14.45;4.72;;;;;;;9.50;100.00;99597.81;4805768;29;20058;-67
2023/12/13 11:24:22;;;;;;;10.63;4.38;;;;;;;9.49;100.00;99601.66;4792660;29;20078;-66
2023/12/13 11:27:13;;;;;;;11.90;4.50;;;;;;;9.50;100.00;99603.25;4793405;29;20224;-66
2023/12/13 11:30:13;;;;;;;12.38;4.53;;;;;;;9.45;100.00;99600.59;4792010;29;20129;-66
2023/12/13 11:33:11;;;;;;;13.18;4.80;;;;;;;9.43;100.00;99598.19;4799523;29;20397;-66
2023/12/13 11:35:59;;;;;;;13.30;4.60;;;;;;;9.42;100.00;99606.63;4783020;29;20372;-67
2023/12/13 11:38:50;;;;;;;12.18;4.65;;;;;;;9.42;100.00;99607.44;4806069;29;20054;-66
2023/12/13 11:41:38;;;;;;;14.10;4.50;;;;;;;9.58;100.00;99605.34;4792051;29;20103;-66
2023/12/13 11:44:30;;;;;;;11.68;4.63;;;;;;;9.64;100.00;99609.59;4794197;29;20058;-64
2023/12/13 11:47:18;;;;;;;10.55;3.95;;;;;;;9.62;100.00;99613.72;4792226;29;20204;-66
2023/12/13 11:50:10;;;;;;;11.70;4.28;;;;;;;9.60;100.00;99614.03;4807008;29;20096;-67
2023/12/13 11:52:58;;;;;;;10.75;4.18;;;;;;;9.59;100.00;99609.69;4793275;29;20057;-66
2023/12/13 11:55:46;;;;;;;13.18;4.22;;;;;;;9.58;100.00;99611.59;4140590;29;10000801;-67
2023/12/13 11:58:34;;;;;;;12.60;4.10;;;;;;;9.60;100.00;99609.41;4802884;29;20556;-67
2023/12/13 12:01:22;;;;;;;10.57;3.88;;;;;;;9.64;100.00;99615.03;4802677;29;20054;-67
2023/12/13 12:04:11;;;;;;;13.35;4.18;;;;;;;9.65;100.00;99611.25;4787681;29;20063;-66
2023/12/13 12:06:59;;;;;;;10.27;4.22;;;;;;;9.66;100.00;99617.47;4802925;29;20073;-66
2023/12/13 12:09:51;;;;;;;13.48;4.18;;;;;;;9.65;100.00;99621.31;4802865;29;20132;-66
2023/12/13 12:12:39;;;;;;;11.65;3.97;;;;;;;9.66;100.00;99620.22;4788733;29;20161;-66
2023/12/13 12:15:28;;;;;;;11.45;4.45;;;;;;;9.66;100.00;99626.44;4802483;29;20187;-66
2023/12/13 12:18:17;;;;;;;13.73;5.05;;;;;;;9.67;100.00;99629.97;4804632;29;20051;-66
2023/12/13 12:21:09;;;;;;;14.05;4.80;;;;;;;9.60;100.00;99630.34;4806631;29;20563;-66
2023/12/13 12:23:58;;;;;;;14.13;5.07;;;;;;;9.58;100.00;99630.63;4793561;29;20133;-66
2023/12/13 12:26:48;;;;;;;16.38;5.32;;;;;;;9.60;100.00;99627.63;4797993;29;20051;-66
2023/12/13 12:29:36;;;;;;;12.95;4.78;;;;;;;9.62;100.00;99633.59;4795957;29;20059;-65
2023/12/13 12:32:24;;;;;;;13.00;4.22;;;;;;;9.64;100.00;99633.28;4792978;29;20051;-66
2023/12/13 12:35:12;;;;;;;12.70;4.00;;;;;;;9.65;100.00;99633.00;4815718;29;20066;-64
2023/12/13 12:38:00;;;;;;;14.60;4.72;;;;;;;9.62;100.00;99633.59;4813748;29;20081;-66
2023/12/13 12:40:48;;;;;;;15.38;4.97;;;;;;;9.62;100.00;99639.03;4804888;29;20501;-67
2023/12/13 12:43:37;;;;;;;13.57;5.32;;;;;;;9.61;100.00;99629.25;4805405;29;20430;-66
2023/12/13 12:46:25;;;;;;;12.73;4.60;;;;;;;9.58;100.00;99624.38;4803464;29;20425;-66
2023/12/13 12:49:13;;;;;;;13.60;4.72;;;;;;;9.59;100.00;99631.44;4792641;29;20054;-65
2023/12/13 12:52:02;;;;;;;14.07;4.68;;;;;;;9.57;100.00;99631.75;4789756;29;20047;-65
2023/12/13 12:54:50;;;;;;;13.82;4.25;;;;;;;9.60;100.00;99635.78;4797934;29;20058;-65
2023/12/13 12:57:38;;;;;;;12.45;4.30;;;;;;;9.63;100.00;99632.47;4823104;29;20114;-66
2023/12/13 13:00:26;;;;;;;17.92;4.75;;;;;;;9.66;100.00;99639.25;4786317;29;20560;-66
2023/12/13 13:03:15;;;;;;;10.95;4.18;;;;;;;9.65;100.00;99633.00;4446187;30;10001234;-66
2023/12/13 13:06:04;;;;;;;13.63;3.97;;;;;;;9.66;100.00;99637.31;4791815;29;20133;-67